Louisville, KY

12:46 AM EST on February 01, 2015 (GMT -0500)
RMR - Louisville | Change Station
CLOSE
Current Station
Personal Weather Station
Location: Louisville, KY
Elevation: 446 ft
Nearby Weather Stations

Elev 446 ft 38.27 °N, 85.71 °W | Updated 3 minutes ago

Overcast
Overcast
38.6 °F
Feels Like 39 °F
N
0.0
Wind Variable Wind from South
Gusts 7.0 mph

Today
High -- | Low -- °F
--% Chance of Precip.
Yesterday
High -- | Low -- °F
Precip. -- in
7:48 AM 6:05 PM
Waxing Gibbous, 93% visible
Pressure 30.20 in
Visibility 10.0 miles
Clouds Overcast 11000 ft
Windchill 39 °F
Dew Point 25 °F
Humidity 59%
Rainfall 0.00 in
Snow Depth Not available.
UV 0 out of 12
Pollen .30 out of 12
Air Quality Not available.
Flu Activity Not available.
METAR KSDF 010456Z 07006KT 10SM OVC110 04/M06 A3020

More Conditions Fewer Conditions

Pressure 30.20 in
Visibility 10.0 miles
Clouds Overcast 11000 ft
Windchill 39 °F
Dew Point 25 °F
Humidity 59%
Rainfall 0.00 in
Snow Depth Not available.
UV 0 out of 12
Pollen .30 out of 12
Air Quality Not available.
Flu Activity Not available.
METAR KSDF 010456Z 07006KT 10SM OVC110 04/M06 A3020

More Conditions Fewer Conditions

10-Day Weather Forecast

Almanac

Astronomy

Feb. 01, 2015 Rise Set
Actual Time
Civil Twilight
Nautical Twilight
Astronomical Twilight
Moon
Length of Visible Light
Length of Day
Tomorrow will be .
, % of the Moon is Illuminated

Today's Extremes

State Highs State Lows

Community

WunderPhotos

Upload Photos

1,792,316 photos uploaded!

WunderBlogs® & News

Nearby

Air Quality

  Air Quality AQ Index Pollutant
Not available.

Snow Depth

Station Depth Elevation

Earthquake Activity

City Distance Mag. Time & Date
Minimum magnitude displayed is 2.5.

Coastal Water Temperatures

Place Temperature

Nearby Weather Stations